sensor_id;sensor_type;location;lat;lon;timestamp;temperature;humidity
8408;DHT22;4241;48.452;9.216;2023-02-21T00:00:05;7.20;99.90
8408;DHT22;4241;48.452;9.216;2023-02-21T00:02:50;6.80;99.60
8408;DHT22;4241;48.452;9.216;2023-02-21T00:05:35;6.60;99.90
8408;DHT22;4241;48.452;9.216;2023-02-21T00:08:20;7.00;99.90
8408;DHT22;4241;48.452;9.216;2023-02-21T00:11:04;6.80;99.70
8408;DHT22;4241;48.452;9.216;2023-02-21T00:13:48;6.80;99.90
8408;DHT22;4241;48.452;9.216;2023-02-21T00:16:32;6.80;99.90
8408;DHT22;4241;48.452;9.216;2023-02-21T00:19:17;6.70;99.90
8408;DHT22;4241;48.452;9.216;2023-02-21T00:22:02;7.00;99.90
8408;DHT22;4241;48.452;9.216;2023-02-21T00:24:47;6.70;99.90
8408;DHT22;4241;48.452;9.216;2023-02-21T00:27:31;6.70;99.90
8408;DHT22;4241;48.452;9.216;2023-02-21T00:30:15;6.80;99.90
8408;DHT22;4241;48.452;9.216;2023-02-21T00:33:00;6.70;99.90
8408;DHT22;4241;48.452;9.216;2023-02-21T00:35:44;7.00;99.90
8408;DHT22;4241;48.452;9.216;2023-02-21T00:38:29;6.70;99.90
8408;DHT22;4241;48.452;9.216;2023-02-21T00:41:14;6.90;99.90
8408;DHT22;4241;48.452;9.216;2023-02-21T00:43:58;6.50;99.90
8408;DHT22;4241;48.452;9.216;2023-02-21T00:46:42;6.80;99.90
8408;DHT22;4241;48.452;9.216;2023-02-21T00:49:27;6.40;99.90
8408;DHT22;4241;48.452;9.216;2023-02-21T00:52:11;6.60;99.90
8408;DHT22;4241;48.452;9.216;2023-02-21T00:54:57;6.30;99.90
8408;DHT22;4241;48.452;9.216;2023-02-21T00:57:42;6.40;99.90
8408;DHT22;4241;48.452;9.216;2023-02-21T01:00:27;6.40;99.90
8408;DHT22;4241;48.452;9.216;2023-02-21T01:03:11;6.40;99.90
8408;DHT22;4241;48.452;9.216;2023-02-21T01:05:56;6.50;99.90
8408;DHT22;4241;48.452;9.216;2023-02-21T01:08:42;6.60;99.90
8408;DHT22;4241;48.452;9.216;2023-02-21T01:11:28;6.20;99.90
8408;DHT22;4241;48.452;9.216;2023-02-21T01:14:13;6.40;99.90
8408;DHT22;4241;48.452;9.216;2023-02-21T01:16:58;6.70;99.90
8408;DHT22;4241;48.452;9.216;2023-02-21T01:19:42;6.40;99.90
8408;DHT22;4241;48.452;9.216;2023-02-21T01:22:27;6.40;99.90
8408;DHT22;4241;48.452;9.216;2023-02-21T01:25:11;6.70;99.90
8408;DHT22;4241;48.452;9.216;2023-02-21T01:27:57;6.40;99.90
8408;DHT22;4241;48.452;9.216;2023-02-21T01:30:42;6.40;99.90
8408;DHT22;4241;48.452;9.216;2023-02-21T01:33:26;6.20;99.90
8408;DHT22;4241;48.452;9.216;2023-02-21T01:36:10;6.60;99.90
8408;DHT22;4241;48.452;9.216;2023-02-21T01:38:55;6.10;99.90
8408;DHT22;4241;48.452;9.216;2023-02-21T01:41:39;6.40;99.90
8408;DHT22;4241;48.452;9.216;2023-02-21T01:44:33;6.10;99.90
8408;DHT22;4241;48.452;9.216;2023-02-21T01:47:18;6.10;99.90
8408;DHT22;4241;48.452;9.216;2023-02-21T01:50:05;6.40;99.90
8408;DHT22;4241;48.452;9.216;2023-02-21T01:52:50;6.00;99.90
8408;DHT22;4241;48.452;9.216;2023-02-21T01:55:36;6.10;99.90
8408;DHT22;4241;48.452;9.216;2023-02-21T01:58:23;6.50;99.90
8408;DHT22;4241;48.452;9.216;2023-02-21T02:01:24;6.10;99.90
8408;DHT22;4241;48.452;9.216;2023-02-21T02:04:10;6.10;99.90
8408;DHT22;4241;48.452;9.216;2023-02-21T02:06:54;6.00;99.90
8408;DHT22;4241;48.452;9.216;2023-02-21T02:09:39;6.00;99.90
8408;DHT22;4241;48.452;9.216;2023-02-21T02:12:55;5.90;99.90
8408;DHT22;4241;48.452;9.216;2023-02-21T02:15:40;5.90;99.90
8408;DHT22;4241;48.452;9.216;2023-02-21T02:18:35;5.90;99.90
8408;DHT22;4241;48.452;9.216;2023-02-21T02:24:33;5.90;99.90
8408;DHT22;4241;48.452;9.216;2023-02-21T02:27:39;6.30;99.90
8408;DHT22;4241;48.452;9.216;2023-02-21T02:33:30;5.90;99.90
8408;DHT22;4241;48.452;9.216;2023-02-21T02:36:05;5.90;99.90
8408;DHT22;4241;48.452;9.216;2023-02-21T02:38:37;5.60;99.90
8408;DHT22;4241;48.452;9.216;2023-02-21T02:41:15;6.00;99.90
8408;DHT22;4241;48.452;9.216;2023-02-21T02:43:48;5.90;99.90
8408;DHT22;4241;48.452;9.216;2023-02-21T02:46:19;5.90;99.90
8408;DHT22;4241;48.452;9.216;2023-02-21T02:48:52;5.70;99.90
8408;DHT22;4241;48.452;9.216;2023-02-21T02:51:22;5.80;99.90
8408;DHT22;4241;48.452;9.216;2023-02-21T02:53:51;6.00;99.90
8408;DHT22;4241;48.452;9.216;2023-02-21T02:56:18;6.20;99.90
8408;DHT22;4241;48.452;9.216;2023-02-21T02:58:51;5.70;99.90
8408;DHT22;4241;48.452;9.216;2023-02-21T03:01:33;6.10;99.90
8408;DHT22;4241;48.452;9.216;2023-02-21T03:04:12;5.90;99.90
8408;DHT22;4241;48.452;9.216;2023-02-21T03:06:48;5.80;99.90
8408;DHT22;4241;48.452;9.216;2023-02-21T03:09:22;5.60;99.90
8408;DHT22;4241;48.452;9.216;2023-02-21T03:11:58;5.40;99.90
8408;DHT22;4241;48.452;9.216;2023-02-21T03:14:29;5.60;99.90
8408;DHT22;4241;48.452;9.216;2023-02-21T03:17:01;5.80;99.90
8408;DHT22;4241;48.452;9.216;2023-02-21T03:19:32;5.60;99.90
8408;DHT22;4241;48.452;9.216;2023-02-21T03:22:02;5.60;99.90
8408;DHT22;4241;48.452;9.216;2023-02-21T03:24:31;5.90;99.90
8408;DHT22;4241;48.452;9.216;2023-02-21T03:27:02;5.40;99.90
8408;DHT22;4241;48.452;9.216;2023-02-21T03:29:31;5.50;99.90
8408;DHT22;4241;48.452;9.216;2023-02-21T03:32:02;6.00;99.90
8408;DHT22;4241;48.452;9.216;2023-02-21T03:34:35;5.50;99.90
8408;DHT22;4241;48.452;9.216;2023-02-21T03:37:03;5.60;99.90
8408;DHT22;4241;48.452;9.216;2023-02-21T03:39:30;5.50;99.90
8408;DHT22;4241;48.452;9.216;2023-02-21T03:41:57;5.60;99.90
8408;DHT22;4241;48.452;9.216;2023-02-21T03:44:24;5.60;99.90
8408;DHT22;4241;48.452;9.216;2023-02-21T03:46:51;5.60;99.90
8408;DHT22;4241;48.452;9.216;2023-02-21T03:49:18;5.60;99.90
8408;DHT22;4241;48.452;9.216;2023-02-21T03:51:45;5.80;99.90
8408;DHT22;4241;48.452;9.216;2023-02-21T03:54:13;5.50;99.90
8408;DHT22;4241;48.452;9.216;2023-02-21T03:56:39;5.60;99.90
8408;DHT22;4241;48.452;9.216;2023-02-21T03:59:06;5.50;99.90
8408;DHT22;4241;48.452;9.216;2023-02-21T04:01:33;5.70;99.90
8408;DHT22;4241;48.452;9.216;2023-02-21T04:04:00;5.60;99.90
8408;DHT22;4241;48.452;9.216;2023-02-21T04:06:27;5.70;99.90
8408;DHT22;4241;48.452;9.216;2023-02-21T04:08:53;5.40;99.90
8408;DHT22;4241;48.452;9.216;2023-02-21T04:11:22;5.70;99.90
8408;DHT22;4241;48.452;9.216;2023-02-21T04:13:48;5.80;99.90
8408;DHT22;4241;48.452;9.216;2023-02-21T04:16:15;5.60;99.90
8408;DHT22;4241;48.452;9.216;2023-02-21T04:18:42;6.10;99.90
8408;DHT22;4241;48.452;9.216;2023-02-21T04:21:09;5.70;99.90
8408;DHT22;4241;48.452;9.216;2023-02-21T04:23:36;5.50;99.90
8408;DHT22;4241;48.452;9.216;2023-02-21T04:26:03;5.70;99.90
8408;DHT22;4241;48.452;9.216;2023-02-21T04:28:31;5.60;99.90
8408;DHT22;4241;48.452;9.216;2023-02-21T04:30:58;6.00;99.90
8408;DHT22;4241;48.452;9.216;2023-02-21T04:33:24;5.50;99.90
8408;DHT22;4241;48.452;9.216;2023-02-21T04:35:51;5.70;99.90
8408;DHT22;4241;48.452;9.216;2023-02-21T04:38:18;5.90;99.90
8408;DHT22;4241;48.452;9.216;2023-02-21T04:40:45;5.90;99.90
8408;DHT22;4241;48.452;9.216;2023-02-21T04:43:11;5.90;99.90
8408;DHT22;4241;48.452;9.216;2023-02-21T04:45:40;5.70;99.90
8408;DHT22;4241;48.452;9.216;2023-02-21T04:48:06;5.80;99.90
8408;DHT22;4241;48.452;9.216;2023-02-21T04:50:33;5.60;99.90
8408;DHT22;4241;48.452;9.216;2023-02-21T04:53:00;5.70;99.90
8408;DHT22;4241;48.452;9.216;2023-02-21T04:55:27;5.90;99.90
8408;DHT22;4241;48.452;9.216;2023-02-21T04:57:53;5.90;99.90
8408;DHT22;4241;48.452;9.216;2023-02-21T05:00:20;5.70;99.90
8408;DHT22;4241;48.452;9.216;2023-02-21T05:02:49;5.60;99.90
8408;DHT22;4241;48.452;9.216;2023-02-21T05:05:16;5.60;99.90
8408;DHT22;4241;48.452;9.216;2023-02-21T05:07:43;5.40;99.90
8408;DHT22;4241;48.452;9.216;2023-02-21T05:10:10;5.60;99.90
8408;DHT22;4241;48.452;9.216;2023-02-21T05:12:37;5.30;99.90
8408;DHT22;4241;48.452;9.216;2023-02-21T05:15:05;5.40;99.90
8408;DHT22;4241;48.452;9.216;2023-02-21T05:17:33;5.30;99.90
8408;DHT22;4241;48.452;9.216;2023-02-21T05:20:01;5.40;99.90
8408;DHT22;4241;48.452;9.216;2023-02-21T05:22:28;5.40;99.90
8408;DHT22;4241;48.452;9.216;2023-02-21T05:24:55;5.20;99.90
8408;DHT22;4241;48.452;9.216;2023-02-21T05:27:22;5.10;99.90
8408;DHT22;4241;48.452;9.216;2023-02-21T05:29:50;5.10;99.90
8408;DHT22;4241;48.452;9.216;2023-02-21T05:32:18;5.20;99.90
8408;DHT22;4241;48.452;9.216;2023-02-21T05:34:45;5.00;99.90
8408;DHT22;4241;48.452;9.216;2023-02-21T05:37:14;4.90;99.90
8408;DHT22;4241;48.452;9.216;2023-02-21T05:39:41;4.80;99.90
8408;DHT22;4241;48.452;9.216;2023-02-21T05:42:08;4.70;99.90
8408;DHT22;4241;48.452;9.216;2023-02-21T05:44:35;5.10;99.90
8408;DHT22;4241;48.452;9.216;2023-02-21T05:47:02;4.80;99.90
8408;DHT22;4241;48.452;9.216;2023-02-21T05:49:29;4.40;99.90
8408;DHT22;4241;48.452;9.216;2023-02-21T05:51:56;4.70;99.90
8408;DHT22;4241;48.452;9.216;2023-02-21T05:54:24;4.40;99.90
8408;DHT22;4241;48.452;9.216;2023-02-21T05:56:51;4.30;99.90
8408;DHT22;4241;48.452;9.216;2023-02-21T05:59:19;4.40;99.90
8408;DHT22;4241;48.452;9.216;2023-02-21T06:01:46;4.40;99.90
8408;DHT22;4241;48.452;9.216;2023-02-21T06:04:14;4.20;99.90
8408;DHT22;4241;48.452;9.216;2023-02-21T06:06:41;4.40;99.90
8408;DHT22;4241;48.452;9.216;2023-02-21T06:09:08;4.40;99.90
8408;DHT22;4241;48.452;9.216;2023-02-21T06:11:38;4.20;99.90
8408;DHT22;4241;48.452;9.216;2023-02-21T06:14:07;4.20;99.90
8408;DHT22;4241;48.452;9.216;2023-02-21T06:16:35;4.10;99.90
8408;DHT22;4241;48.452;9.216;2023-02-21T06:19:03;4.10;99.90
8408;DHT22;4241;48.452;9.216;2023-02-21T06:21:31;4.40;99.90
8408;DHT22;4241;48.452;9.216;2023-02-21T06:23:58;4.20;99.90
8408;DHT22;4241;48.452;9.216;2023-02-21T06:26:24;4.10;99.90
8408;DHT22;4241;48.452;9.216;2023-02-21T06:28:53;4.50;99.90
8408;DHT22;4241;48.452;9.216;2023-02-21T06:31:20;4.20;99.90
8408;DHT22;4241;48.452;9.216;2023-02-21T06:33:48;4.10;99.90
8408;DHT22;4241;48.452;9.216;2023-02-21T06:36:17;4.20;99.90
8408;DHT22;4241;48.452;9.216;2023-02-21T06:38:45;4.20;99.90
8408;DHT22;4241;48.452;9.216;2023-02-21T06:41:14;4.20;99.90
8408;DHT22;4241;48.452;9.216;2023-02-21T06:43:41;4.20;99.90
8408;DHT22;4241;48.452;9.216;2023-02-21T06:46:09;4.10;99.90
8408;DHT22;4241;48.452;9.216;2023-02-21T06:48:36;4.20;99.90
8408;DHT22;4241;48.452;9.216;2023-02-21T06:51:05;4.30;99.90
8408;DHT22;4241;48.452;9.216;2023-02-21T06:53:35;4.20;99.90
8408;DHT22;4241;48.452;9.216;2023-02-21T06:56:02;4.30;99.90
8408;DHT22;4241;48.452;9.216;2023-02-21T06:58:29;4.20;99.90
8408;DHT22;4241;48.452;9.216;2023-02-21T07:00:56;4.40;99.90
8408;DHT22;4241;48.452;9.216;2023-02-21T07:03:24;4.40;99.90
8408;DHT22;4241;48.452;9.216;2023-02-21T07:05:51;4.50;99.90
8408;DHT22;4241;48.452;9.216;2023-02-21T07:08:18;4.50;99.90
8408;DHT22;4241;48.452;9.216;2023-02-21T07:10:44;4.40;99.90
8408;DHT22;4241;48.452;9.216;2023-02-21T07:13:11;4.80;99.90
8408;DHT22;4241;48.452;9.216;2023-02-21T07:15:38;4.40;99.90
8408;DHT22;4241;48.452;9.216;2023-02-21T07:18:05;4.40;99.90
8408;DHT22;4241;48.452;9.216;2023-02-21T07:20:33;4.80;99.90
8408;DHT22;4241;48.452;9.216;2023-02-21T07:23:00;4.40;99.90
8408;DHT22;4241;48.452;9.216;2023-02-21T07:25:26;4.50;99.90
8408;DHT22;4241;48.452;9.216;2023-02-21T07:27:54;4.40;99.90
8408;DHT22;4241;48.452;9.216;2023-02-21T07:30:21;4.50;99.90
8408;DHT22;4241;48.452;9.216;2023-02-21T07:32:48;4.50;99.90
8408;DHT22;4241;48.452;9.216;2023-02-21T07:35:15;4.60;99.90
8408;DHT22;4241;48.452;9.216;2023-02-21T07:37:43;4.50;99.90
8408;DHT22;4241;48.452;9.216;2023-02-21T07:40:10;4.70;99.90
8408;DHT22;4241;48.452;9.216;2023-02-21T07:42:40;4.60;99.90
8408;DHT22;4241;48.452;9.216;2023-02-21T07:45:08;4.80;99.90
8408;DHT22;4241;48.452;9.216;2023-02-21T07:47:35;4.70;99.90
8408;DHT22;4241;48.452;9.216;2023-02-21T07:50:02;5.00;99.90
8408;DHT22;4241;48.452;9.216;2023-02-21T07:52:29;4.80;99.90
8408;DHT22;4241;48.452;9.216;2023-02-21T07:54:57;5.10;99.90
8408;DHT22;4241;48.452;9.216;2023-02-21T07:57:24;5.10;99.90
8408;DHT22;4241;48.452;9.216;2023-02-21T07:59:51;5.50;99.90
8408;DHT22;4241;48.452;9.216;2023-02-21T08:02:17;5.80;99.90
8408;DHT22;4241;48.452;9.216;2023-02-21T08:04:48;5.40;99.90
8408;DHT22;4241;48.452;9.216;2023-02-21T08:07:15;5.50;99.90
8408;DHT22;4241;48.452;9.216;2023-02-21T08:09:42;5.80;99.90
8408;DHT22;4241;48.452;9.216;2023-02-21T08:12:10;5.80;99.90
8408;DHT22;4241;48.452;9.216;2023-02-21T08:14:37;5.60;99.90
8408;DHT22;4241;48.452;9.216;2023-02-21T08:17:03;6.00;99.90
8408;DHT22;4241;48.452;9.216;2023-02-21T08:19:30;5.70;99.90
8408;DHT22;4241;48.452;9.216;2023-02-21T08:21:57;5.80;99.90
8408;DHT22;4241;48.452;9.216;2023-02-21T08:24:24;6.00;99.90
8408;DHT22;4241;48.452;9.216;2023-02-21T08:26:50;6.00;99.90
8408;DHT22;4241;48.452;9.216;2023-02-21T08:29:19;6.00;99.90
8408;DHT22;4241;48.452;9.216;2023-02-21T08:31:46;6.00;99.90
8408;DHT22;4241;48.452;9.216;2023-02-21T08:34:12;6.50;99.90
8408;DHT22;4241;48.452;9.216;2023-02-21T08:36:41;6.10;99.90
8408;DHT22;4241;48.452;9.216;2023-02-21T08:39:08;6.10;99.90
8408;DHT22;4241;48.452;9.216;2023-02-21T08:41:36;6.50;99.90
8408;DHT22;4241;48.452;9.216;2023-02-21T08:44:03;6.30;99.90
8408;DHT22;4241;48.452;9.216;2023-02-21T08:46:32;6.30;99.90
8408;DHT22;4241;48.452;9.216;2023-02-21T08:48:59;6.60;99.90
8408;DHT22;4241;48.452;9.216;2023-02-21T08:51:27;6.60;99.90
8408;DHT22;4241;48.452;9.216;2023-02-21T08:53:54;6.80;99.90
8408;DHT22;4241;48.452;9.216;2023-02-21T08:56:22;7.10;99.90
8408;DHT22;4241;48.452;9.216;2023-02-21T08:58:49;6.80;99.90
8408;DHT22;4241;48.452;9.216;2023-02-21T09:01:18;7.00;99.90
8408;DHT22;4241;48.452;9.216;2023-02-21T09:03:46;7.40;99.90
8408;DHT22;4241;48.452;9.216;2023-02-21T09:06:13;7.40;99.90
8408;DHT22;4241;48.452;9.216;2023-02-21T09:08:40;7.60;99.90
8408;DHT22;4241;48.452;9.216;2023-02-21T09:11:07;7.50;99.90
8408;DHT22;4241;48.452;9.216;2023-02-21T09:13:34;7.90;99.90
8408;DHT22;4241;48.452;9.216;2023-02-21T09:16:02;7.90;99.90
8408;DHT22;4241;48.452;9.216;2023-02-21T09:18:30;7.70;99.90
8408;DHT22;4241;48.452;9.216;2023-02-21T09:20:59;8.10;99.90
8408;DHT22;4241;48.452;9.216;2023-02-21T09:23:27;8.40;99.90
8408;DHT22;4241;48.452;9.216;2023-02-21T09:25:54;8.50;99.90
8408;DHT22;4241;48.452;9.216;2023-02-21T09:28:21;8.30;99.90
8408;DHT22;4241;48.452;9.216;2023-02-21T09:30:49;8.50;99.90
8408;DHT22;4241;48.452;9.216;2023-02-21T09:33:16;9.00;99.90
8408;DHT22;4241;48.452;9.216;2023-02-21T09:35:43;8.70;99.90
8408;DHT22;4241;48.452;9.216;2023-02-21T09:38:12;9.30;99.90
8408;DHT22;4241;48.452;9.216;2023-02-21T09:40:41;9.60;99.90
8408;DHT22;4241;48.452;9.216;2023-02-21T09:43:12;9.30;99.90
8408;DHT22;4241;48.452;9.216;2023-02-21T09:45:41;9.90;99.90
8408;DHT22;4241;48.452;9.216;2023-02-21T09:48:12;9.60;99.90
8408;DHT22;4241;48.452;9.216;2023-02-21T09:50:43;9.70;99.90
8408;DHT22;4241;48.452;9.216;2023-02-21T09:53:16;10.10;99.90
8408;DHT22;4241;48.452;9.216;2023-02-21T09:55:45;10.40;99.90
8408;DHT22;4241;48.452;9.216;2023-02-21T09:58:15;10.70;99.90
8408;DHT22;4241;48.452;9.216;2023-02-21T10:00:43;11.00;99.90
8408;DHT22;4241;48.452;9.216;2023-02-21T10:03:20;11.30;99.90
8408;DHT22;4241;48.452;9.216;2023-02-21T10:05:56;11.50;99.90
8408;DHT22;4241;48.452;9.216;2023-02-21T10:08:29;11.80;99.90
8408;DHT22;4241;48.452;9.216;2023-02-21T10:11:06;12.10;99.90
8408;DHT22;4241;48.452;9.216;2023-02-21T10:13:38;12.40;99.90
8408;DHT22;4241;48.452;9.216;2023-02-21T10:16:11;12.50;98.80
8408;DHT22;4241;48.452;9.216;2023-02-21T10:18:43;12.80;98.10
8408;DHT22;4241;48.452;9.216;2023-02-21T10:21:16;13.00;98.00
8408;DHT22;4241;48.452;9.216;2023-02-21T10:23:50;13.30;95.90
8408;DHT22;4241;48.452;9.216;2023-02-21T10:26:22;13.40;95.80
8408;DHT22;4241;48.452;9.216;2023-02-21T10:28:51;13.60;95.00
8408;DHT22;4241;48.452;9.216;2023-02-21T10:31:20;13.80;94.50
8408;DHT22;4241;48.452;9.216;2023-02-21T10:33:49;13.90;94.10
8408;DHT22;4241;48.452;9.216;2023-02-21T10:36:18;14.10;93.80
8408;DHT22;4241;48.452;9.216;2023-02-21T10:38:53;14.30;93.60
8408;DHT22;4241;48.452;9.216;2023-02-21T10:41:21;14.70;93.90
8408;DHT22;4241;48.452;9.216;2023-02-21T10:43:52;14.80;93.60
8408;DHT22;4241;48.452;9.216;2023-02-21T10:46:24;15.00;93.70
8408;DHT22;4241;48.452;9.216;2023-02-21T10:48:57;15.10;92.40
8408;DHT22;4241;48.452;9.216;2023-02-21T10:51:29;15.20;92.40
8408;DHT22;4241;48.452;9.216;2023-02-21T10:54:17;15.40;91.10
8408;DHT22;4241;48.452;9.216;2023-02-21T10:56:45;15.50;90.20
8408;DHT22;4241;48.452;9.216;2023-02-21T10:59:19;15.60;89.00
8408;DHT22;4241;48.452;9.216;2023-02-21T11:01:48;15.80;88.90
8408;DHT22;4241;48.452;9.216;2023-02-21T11:04:28;16.00;83.40
8408;DHT22;4241;48.452;9.216;2023-02-21T11:06:58;16.50;79.10
8408;DHT22;4241;48.452;9.216;2023-02-21T11:09:33;16.30;75.10
8408;DHT22;4241;48.452;9.216;2023-02-21T11:12:04;16.40;86.20
8408;DHT22;4241;48.452;9.216;2023-02-21T11:14:32;16.50;83.20
8408;DHT22;4241;48.452;9.216;2023-02-21T11:17:17;16.50;74.80
8408;DHT22;4241;48.452;9.216;2023-02-21T11:19:50;16.50;71.80
8408;DHT22;4241;48.452;9.216;2023-02-21T11:22:20;16.70;82.00
8408;DHT22;4241;48.452;9.216;2023-02-21T11:24:57;16.70;81.00
8408;DHT22;4241;48.452;9.216;2023-02-21T11:27:26;16.70;72.30
8408;DHT22;4241;48.452;9.216;2023-02-21T11:29:54;16.70;78.90
8408;DHT22;4241;48.452;9.216;2023-02-21T11:32:26;16.80;76.50
8408;DHT22;4241;48.452;9.216;2023-02-21T11:35:22;16.90;77.90
8408;DHT22;4241;48.452;9.216;2023-02-21T11:37:53;16.90;66.70
8408;DHT22;4241;48.452;9.216;2023-02-21T11:40:28;17.00;66.30
8408;DHT22;4241;48.452;9.216;2023-02-21T11:43:10;17.20;75.10
8408;DHT22;4241;48.452;9.216;2023-02-21T11:45:38;17.20;65.70
8408;DHT22;4241;48.452;9.216;2023-02-21T11:48:12;16.80;75.50
8408;DHT22;4241;48.452;9.216;2023-02-21T11:50:43;17.50;77.20
8408;DHT22;4241;48.452;9.216;2023-02-21T11:53:17;17.50;68.40
8408;DHT22;4241;48.452;9.216;2023-02-21T11:55:54;17.50;65.50
8408;DHT22;4241;48.452;9.216;2023-02-21T11:58:25;17.70;73.20
8408;DHT22;4241;48.452;9.216;2023-02-21T12:00:58;17.70;70.30
8408;DHT22;4241;48.452;9.216;2023-02-21T12:03:50;17.60;71.00
8408;DHT22;4241;48.452;9.216;2023-02-21T12:06:27;17.30;71.90
8408;DHT22;4241;48.452;9.216;2023-02-21T12:08:59;17.70;72.70
8408;DHT22;4241;48.452;9.216;2023-02-21T12:11:50;17.60;62.90
8408;DHT22;4241;48.452;9.216;2023-02-21T12:14:33;17.70;64.10
8408;DHT22;4241;48.452;9.216;2023-02-21T12:17:13;17.50;59.20
8408;DHT22;4241;48.452;9.216;2023-02-21T12:19:58;17.50;60.30
8408;DHT22;4241;48.452;9.216;2023-02-21T12:22:41;17.40;60.30
8408;DHT22;4241;48.452;9.216;2023-02-21T12:25:16;17.40;60.80
8408;DHT22;4241;48.452;9.216;2023-02-21T12:27:51;17.30;59.40
8408;DHT22;4241;48.452;9.216;2023-02-21T12:30:30;17.00;69.00
8408;DHT22;4241;48.452;9.216;2023-02-21T12:33:09;17.00;59.00
8408;DHT22;4241;48.452;9.216;2023-02-21T12:36:14;17.00;60.00
8408;DHT22;4241;48.452;9.216;2023-02-21T12:39:00;16.80;58.70
8408;DHT22;4241;48.452;9.216;2023-02-21T12:41:42;16.70;58.50
8408;DHT22;4241;48.452;9.216;2023-02-21T12:44:15;16.50;59.70
8408;DHT22;4241;48.452;9.216;2023-02-21T12:46:48;16.30;58.30
8408;DHT22;4241;48.452;9.216;2023-02-21T12:49:20;16.20;59.00
8408;DHT22;4241;48.452;9.216;2023-02-21T12:51:52;16.00;60.30
8408;DHT22;4241;48.452;9.216;2023-02-21T12:54:33;15.90;60.90
8408;DHT22;4241;48.452;9.216;2023-02-21T12:57:06;15.90;62.60
8408;DHT22;4241;48.452;9.216;2023-02-21T12:59:45;15.80;61.90
8408;DHT22;4241;48.452;9.216;2023-02-21T13:02:18;15.80;62.10
8408;DHT22;4241;48.452;9.216;2023-02-21T13:04:53;15.70;63.10
8408;DHT22;4241;48.452;9.216;2023-02-21T13:07:23;15.60;64.00
8408;DHT22;4241;48.452;9.216;2023-02-21T13:09:58;15.60;65.50
8408;DHT22;4241;48.452;9.216;2023-02-21T13:12:31;15.60;64.90
8408;DHT22;4241;48.452;9.216;2023-02-21T13:15:13;15.60;64.60
8408;DHT22;4241;48.452;9.216;2023-02-21T13:17:42;15.50;65.70
8408;DHT22;4241;48.452;9.216;2023-02-21T13:20:15;15.50;66.20
8408;DHT22;4241;48.452;9.216;2023-02-21T13:26:28;15.40;64.10
8408;DHT22;4241;48.452;9.216;2023-02-21T13:28:58;15.40;65.00
8408;DHT22;4241;48.452;9.216;2023-02-21T13:31:32;15.40;64.80
8408;DHT22;4241;48.452;9.216;2023-02-21T13:34:02;15.30;65.60
8408;DHT22;4241;48.452;9.216;2023-02-21T13:36:42;15.40;66.50
8408;DHT22;4241;48.452;9.216;2023-02-21T13:39:12;15.40;68.20
8408;DHT22;4241;48.452;9.216;2023-02-21T13:41:42;15.50;67.60
8408;DHT22;4241;48.452;9.216;2023-02-21T13:44:12;15.50;67.30
8408;DHT22;4241;48.452;9.216;2023-02-21T13:47:06;15.40;78.40
8408;DHT22;4241;48.452;9.216;2023-02-21T13:49:43;15.50;67.30
8408;DHT22;4241;48.452;9.216;2023-02-21T13:55:26;15.40;67.00
8408;DHT22;4241;48.452;9.216;2023-02-21T13:58:31;15.40;81.70
8408;DHT22;4241;48.452;9.216;2023-02-21T14:07:49;15.40;70.00
8408;DHT22;4241;48.452;9.216;2023-02-21T14:10:39;15.40;70.20
8408;DHT22;4241;48.452;9.216;2023-02-21T14:13:17;15.50;70.20
8408;DHT22;4241;48.452;9.216;2023-02-21T14:15:48;15.40;70.60
8408;DHT22;4241;48.452;9.216;2023-02-21T14:18:23;15.40;67.20
8408;DHT22;4241;48.452;9.216;2023-02-21T14:20:53;15.40;66.70
8408;DHT22;4241;48.452;9.216;2023-02-21T14:23:24;15.50;67.50
8408;DHT22;4241;48.452;9.216;2023-02-21T14:25:59;15.40;66.30
8408;DHT22;4241;48.452;9.216;2023-02-21T14:31:49;15.50;69.60
8408;DHT22;4241;48.452;9.216;2023-02-21T14:34:21;15.50;71.10
8408;DHT22;4241;48.452;9.216;2023-02-21T14:36:50;15.40;67.50
8408;DHT22;4241;48.452;9.216;2023-02-21T14:39:19;15.40;67.40
8408;DHT22;4241;48.452;9.216;2023-02-21T14:42:05;15.40;68.80
8408;DHT22;4241;48.452;9.216;2023-02-21T14:44:41;15.40;68.60
8408;DHT22;4241;48.452;9.216;2023-02-21T14:47:39;15.40;67.80
8408;DHT22;4241;48.452;9.216;2023-02-21T14:50:18;15.40;68.70
8408;DHT22;4241;48.452;9.216;2023-02-21T14:53:08;15.40;68.30
8408;DHT22;4241;48.452;9.216;2023-02-21T14:56:04;15.30;69.40
8408;DHT22;4241;48.452;9.216;2023-02-21T14:58:53;15.40;70.00
8408;DHT22;4241;48.452;9.216;2023-02-21T15:01:50;15.40;70.30
8408;DHT22;4241;48.452;9.216;2023-02-21T15:04:25;15.40;69.40
8408;DHT22;4241;48.452;9.216;2023-02-21T15:07:03;15.40;72.20
8408;DHT22;4241;48.452;9.216;2023-02-21T15:09:34;15.40;72.50
8408;DHT22;4241;48.452;9.216;2023-02-21T15:12:04;15.40;71.20
8408;DHT22;4241;48.452;9.216;2023-02-21T15:14:39;15.40;71.20
8408;DHT22;4241;48.452;9.216;2023-02-21T15:17:11;15.40;70.50
8408;DHT22;4241;48.452;9.216;2023-02-21T15:19:38;15.50;73.40
8408;DHT22;4241;48.452;9.216;2023-02-21T15:22:19;15.50;72.80
8408;DHT22;4241;48.452;9.216;2023-02-21T15:25:16;15.50;81.30
8408;DHT22;4241;48.452;9.216;2023-02-21T15:27:58;15.50;71.90
8408;DHT22;4241;48.452;9.216;2023-02-21T15:30:27;15.50;84.70
8408;DHT22;4241;48.452;9.216;2023-02-21T15:32:58;15.40;84.90
8408;DHT22;4241;48.452;9.216;2023-02-21T15:35:31;15.40;74.50
8408;DHT22;4241;48.452;9.216;2023-02-21T15:38:00;15.40;70.90
8408;DHT22;4241;48.452;9.216;2023-02-21T15:40:28;15.30;80.60
8408;DHT22;4241;48.452;9.216;2023-02-21T15:42:57;15.50;81.40
8408;DHT22;4241;48.452;9.216;2023-02-21T15:45:27;15.40;81.60
8408;DHT22;4241;48.452;9.216;2023-02-21T15:47:57;15.30;82.80
8408;DHT22;4241;48.452;9.216;2023-02-21T15:50:30;15.60;83.70
8408;DHT22;4241;48.452;9.216;2023-02-21T15:53:14;15.30;83.70
8408;DHT22;4241;48.452;9.216;2023-02-21T15:55:42;15.40;73.20
8408;DHT22;4241;48.452;9.216;2023-02-21T15:58:24;15.30;84.50
8408;DHT22;4241;48.452;9.216;2023-02-21T16:01:04;15.40;74.00
8408;DHT22;4241;48.452;9.216;2023-02-21T16:03:36;15.20;85.40
8408;DHT22;4241;48.452;9.216;2023-02-21T16:06:17;15.10;85.90
8408;DHT22;4241;48.452;9.216;2023-02-21T16:09:15;15.00;86.40
8408;DHT22;4241;48.452;9.216;2023-02-21T16:11:45;14.90;75.80
8408;DHT22;4241;48.452;9.216;2023-02-21T16:14:17;14.60;87.50
8408;DHT22;4241;48.452;9.216;2023-02-21T16:16:45;14.50;89.10
8408;DHT22;4241;48.452;9.216;2023-02-21T16:19:19;14.50;90.20
8408;DHT22;4241;48.452;9.216;2023-02-21T16:21:47;14.50;79.90
8408;DHT22;4241;48.452;9.216;2023-02-21T16:24:29;14.20;79.60
8408;DHT22;4241;48.452;9.216;2023-02-21T16:27:04;14.20;80.20
8408;DHT22;4241;48.452;9.216;2023-02-21T16:29:33;14.10;81.10
8408;DHT22;4241;48.452;9.216;2023-02-21T16:32:00;14.00;81.60
8408;DHT22;4241;48.452;9.216;2023-02-21T16:34:30;13.90;93.20
8408;DHT22;4241;48.452;9.216;2023-02-21T16:37:02;13.80;84.50
8408;DHT22;4241;48.452;9.216;2023-02-21T16:39:30;13.70;85.40
8408;DHT22;4241;48.452;9.216;2023-02-21T16:41:57;13.50;87.50
8408;DHT22;4241;48.452;9.216;2023-02-21T16:44:23;13.40;87.60
8408;DHT22;4241;48.452;9.216;2023-02-21T16:46:52;13.30;87.40
8408;DHT22;4241;48.452;9.216;2023-02-21T16:49:19;13.20;88.60
8408;DHT22;4241;48.452;9.216;2023-02-21T16:51:46;13.10;88.60
8408;DHT22;4241;48.452;9.216;2023-02-21T16:54:13;13.10;90.20
8408;DHT22;4241;48.452;9.216;2023-02-21T16:56:41;13.00;90.80
8408;DHT22;4241;48.452;9.216;2023-02-21T16:59:10;12.90;91.60
8408;DHT22;4241;48.452;9.216;2023-02-21T17:01:39;12.70;92.80
8408;DHT22;4241;48.452;9.216;2023-02-21T17:04:13;12.60;93.20
8408;DHT22;4241;48.452;9.216;2023-02-21T17:06:40;12.40;93.90
8408;DHT22;4241;48.452;9.216;2023-02-21T17:09:16;12.30;94.60
8408;DHT22;4241;48.452;9.216;2023-02-21T17:11:43;12.20;95.40
8408;DHT22;4241;48.452;9.216;2023-02-21T17:14:10;12.10;95.70